San Francisco, California
Current Conditions -  °F | °C
As of 3:56 PM on Friday 21 Nov 2014 (Local Time) from KSFO Reporting Station
Overcast Overcast  
Wind Chill: 61°   Ceiling: 6000
Heat Index: 61°   Visibility: 10mi
Dew Point: 55°   Wind: 5mph
Humidity: 81%   Direction: 330°NNW
Pressure: 30.09"   Gusts: NA
Location:  37.78°N, 122.42°W
Report Text: KSFO 212356Z 33004KT 10SM FEW015 OVC060 16/13 A3009 RMK AO2 SLP190 T01610128 10161 20144 53004
Loading
Personal Weather Stations






























Interactive Weather Map New forecast layout! Learn more

10-Day Weather Forecast

Advertisements
Track Severe Weather on mobile